Waverly, WV (26184)

12:47 PM EDT on September 03, 2015 (GMT -0400)
Pleasants Energy | | Change Station
CLOSE
Current Station
Personal Weather Station
Location: St. Marys, WV
Elevation: 640 ft
Nearby Weather Stations

Elev 640 ft 39.33 °N, 81.36 °W | Updated 1 minute ago

Clear
Clear
75.6 °F
Feels Like 76 °F
N
2.0
Wind Variable Wind from SW
Gusts 6.0 mph

Today
High -- | Low -- °F
--% Chance of Precip.
Yesterday
High -- | Low -- °F
Precip. -- in
6:55 AM 7:53 PM
Waning Gibbous, 69% visible
Pressure 30.04 in
Visibility 9.0 miles
Clouds Clear
Heat Index 76 °F
Dew Point 72 °F
Humidity 87%
Rainfall 0.00 in
Snow Depth Not available.
UV 8 out of 12
Pollen 8.80 out of 12
Air Quality Not available.
Flu Activity Not available.
METAR KPKB 031553Z 21006KT 9SM CLR 23/21 A3006 RMK AO2 SLP172 T02280206
Pressure 30.04 in
Visibility 9.0 miles
Clouds Clear
Heat Index 76 °F
Dew Point 72 °F
Humidity 87%
Rainfall 0.00 in
Snow Depth Not available.
UV 8 out of 12
Pollen 8.80 out of 12
Air Quality Not available.
Flu Activity Not available.
METAR KPKB 031553Z 21006KT 9SM CLR 23/21 A3006 RMK AO2 SLP172 T02280206

10-Day Weather Forecast

×

Almanac

Astronomy

Sep. 03, 2015 Rise Set
Actual Time
Civil Twilight
Nautical Twilight
Astronomical Twilight
Moon
Length of Visible Light
Length of Day
Tomorrow will be .
, % of the Moon is Illuminated

Today's Extremes

State Highs State Lows

Community

WunderPhotos

Upload Photos

1,851,988 photos uploaded!

WunderBlogs® & News

Nearby

Air Quality

  Air Quality AQ Index Pollutant
Not available.

Snow Depth

Station Depth Elevation

Earthquake Activity

City Distance Mag. Time & Date
Minimum magnitude displayed is 2.5.

Coastal Water Temperatures

Place Temperature

Stations

Nearby Weather Stations

Station Location Temp. Windchill Dew Point Humidity Wind Precip. Elev Updated Type